createdAt,value
2019-01-15T00:00:08.847Z,15.2
2019-01-15T00:01:09.551Z,11.7
2019-01-15T00:02:10.263Z,14.7
2019-01-15T00:03:10.963Z,13.5
2019-01-15T00:04:11.680Z,18.4
2019-01-15T00:05:12.378Z,17.0
2019-01-15T00:06:13.104Z,17.1
2019-01-15T00:07:13.813Z,17.1
2019-01-15T00:08:14.760Z,18.9
2019-01-15T00:09:15.471Z,13.1
2019-01-15T00:10:16.180Z,15.4
2019-01-15T00:11:16.887Z,14.7
2019-01-15T00:12:17.581Z,17.5
2019-01-15T00:13:18.529Z,13.3
2019-01-15T00:14:19.248Z,16.4
2019-01-15T00:15:20.007Z,19.9
2019-01-15T00:16:20.712Z,14.0
2019-01-15T00:17:21.430Z,13.6
2019-01-15T00:18:22.142Z,12.8
2019-01-15T00:19:22.863Z,21.7
2019-01-15T00:20:23.923Z,15.0
2019-01-15T00:21:24.672Z,10.1
2019-01-15T00:22:25.373Z,16.2
2019-01-15T00:23:26.074Z,19.6
2019-01-15T00:24:26.797Z,12.4
2019-01-15T00:25:27.502Z,12.3
2019-01-15T00:26:28.208Z,13.9
2019-01-15T00:27:28.940Z,12.5
2019-01-15T00:28:29.842Z,14.3
2019-01-15T00:29:30.573Z,10.0
2019-01-15T00:30:31.287Z,11.9
2019-01-15T00:31:31.990Z,14.8
2019-01-15T00:32:32.693Z,17.8
2019-01-15T00:33:33.402Z,12.0
2019-01-15T00:34:34.114Z,12.2
2019-01-15T00:35:34.826Z,16.0
2019-01-15T00:36:35.583Z,18.5
2019-01-15T00:37:36.285Z,18.4
2019-01-15T00:38:37.004Z,10.8
2019-01-15T00:39:37.718Z,18.9
2019-01-15T00:40:38.426Z,10.6
2019-01-15T00:41:39.128Z,9.0
2019-01-15T00:42:40.140Z,11.1
2019-01-15T00:43:40.840Z,11.3
2019-01-15T00:44:41.565Z,12.8
2019-01-15T00:45:42.339Z,10.2
2019-01-15T00:46:43.089Z,12.6
2019-01-15T00:47:43.900Z,15.9
2019-01-15T00:48:44.611Z,12.9
2019-01-15T00:49:45.379Z,15.9
2019-01-15T00:50:47.076Z,19.9
2019-01-15T00:51:47.785Z,12.5
2019-01-15T00:52:48.717Z,15.7
2019-01-15T00:53:49.441Z,14.0
2019-01-15T00:54:50.158Z,15.5
2019-01-15T00:55:50.869Z,17.1
2019-01-15T00:56:51.588Z,19.7
2019-01-15T00:57:52.301Z,13.3
2019-01-15T00:58:53.035Z,15.8
2019-01-15T00:59:53.741Z,15.2
2019-01-15T01:00:54.454Z,13.7
2019-01-15T01:01:55.266Z,14.8
2019-01-15T01:02:56.240Z,21.3
2019-01-15T01:03:57.313Z,11.8
2019-01-15T01:04:58.040Z,15.4
2019-01-15T01:05:58.749Z,14.2
2019-01-15T01:06:59.459Z,10.8
2019-01-15T01:08:00.167Z,17.3
2019-01-15T01:09:01.038Z,13.2
2019-01-15T01:10:01.735Z,9.3
2019-01-15T01:11:02.456Z,18.9
2019-01-15T01:12:03.161Z,16.2
2019-01-15T01:13:03.879Z,24.1
2019-01-15T01:14:04.570Z,10.7
2019-01-15T01:15:05.292Z,19.5
2019-01-15T01:16:06.058Z,14.6
2019-01-15T01:17:06.796Z,8.9
2019-01-15T01:18:07.516Z,16.8
2019-01-15T01:19:08.244Z,13.7
2019-01-15T01:20:08.957Z,13.6
2019-01-15T01:21:09.670Z,14.2
2019-01-15T01:22:10.378Z,9.5
2019-01-15T01:23:11.084Z,10.3
2019-01-15T01:24:11.804Z,12.5
2019-01-15T01:25:12.504Z,20.6
2019-01-15T01:26:13.223Z,11.0
2019-01-15T01:27:13.928Z,14.3
2019-01-15T01:28:14.661Z,11.9
2019-01-15T01:29:15.365Z,10.5
2019-01-15T01:30:16.226Z,10.1
2019-01-15T01:31:16.929Z,13.1
2019-01-15T01:32:17.635Z,17.6
2019-01-15T01:33:18.350Z,12.6
2019-01-15T01:34:19.071Z,13.7
2019-01-15T01:35:19.825Z,13.8
2019-01-15T01:36:20.538Z,12.5
2019-01-15T01:37:21.244Z,14.6
2019-01-15T01:38:21.956Z,15.6
2019-01-15T01:39:22.668Z,14.9
2019-01-15T01:40:23.416Z,9.6
2019-01-15T01:41:24.149Z,11.3
2019-01-15T01:42:29.420Z,7.8
2019-01-15T01:43:25.565Z,18.5
2019-01-15T01:44:26.515Z,15.4
2019-01-15T01:45:27.224Z,11.8
2019-01-15T01:46:28.181Z,13.3
2019-01-15T01:47:28.891Z,14.0
2019-01-15T01:48:29.591Z,11.6
2019-01-15T01:49:30.304Z,13.1
2019-01-15T01:50:31.018Z,8.5
2019-01-15T01:51:31.737Z,17.9
2019-01-15T01:52:32.449Z,14.6
2019-01-15T01:53:33.146Z,11.4
2019-01-15T01:54:33.851Z,14.5
2019-01-15T01:55:34.560Z,12.3
2019-01-15T01:56:35.322Z,14.3
2019-01-15T01:57:36.011Z,14.7
2019-01-15T01:58:36.728Z,10.3
2019-01-15T01:59:37.443Z,12.6
2019-01-15T02:00:38.430Z,10.2
2019-01-15T02:01:39.391Z,15.4
2019-01-15T02:02:40.102Z,14.8
2019-01-15T02:03:41.070Z,12.8
2019-01-15T02:04:41.771Z,15.6
2019-01-15T02:05:42.472Z,11.0
2019-01-15T02:06:43.242Z,12.2
2019-01-15T02:07:44.201Z,9.9
2019-01-15T02:08:44.909Z,11.1
2019-01-15T02:09:45.619Z,9.6
2019-01-15T02:10:46.344Z,9.3
2019-01-15T02:11:47.192Z,7.0
2019-01-15T02:12:47.922Z,10.6
2019-01-15T02:13:48.616Z,12.0
2019-01-15T02:14:49.324Z,10.9
2019-01-15T02:15:50.028Z,12.8
2019-01-15T02:16:50.749Z,10.3
2019-01-15T02:17:51.458Z,15.6
2019-01-15T02:18:52.159Z,11.8
2019-01-15T02:19:52.870Z,12.3
2019-01-15T02:20:53.585Z,13.7
2019-01-15T02:21:54.295Z,9.6
2019-01-15T02:22:55.012Z,14.2
2019-01-15T02:23:55.718Z,11.5
2019-01-15T02:24:56.429Z,16.1
2019-01-15T02:25:57.127Z,9.7
2019-01-15T02:26:57.845Z,11.4
2019-01-15T02:27:58.551Z,13.3
2019-01-15T02:28:59.525Z,10.7
2019-01-15T02:30:00.329Z,9.9
2019-01-15T02:31:00.948Z,9.6
2019-01-15T02:32:01.656Z,5.2
2019-01-15T02:33:02.369Z,12.7
2019-01-15T02:34:03.095Z,10.0
2019-01-15T02:35:03.790Z,8.1
2019-01-15T02:36:04.498Z,12.6
2019-01-15T02:37:05.212Z,12.4
2019-01-15T02:38:05.922Z,9.3
2019-01-15T02:39:06.628Z,9.0
2019-01-15T02:40:07.344Z,15.4
2019-01-15T02:41:08.051Z,7.8
2019-01-15T02:42:08.764Z,10.2
2019-01-15T02:43:09.472Z,15.1
2019-01-15T02:44:10.432Z,13.9
2019-01-15T02:45:11.127Z,9.3
2019-01-15T02:46:11.993Z,8.5
2019-01-15T02:47:12.710Z,10.4
2019-01-15T02:48:13.422Z,9.4
2019-01-15T02:49:14.144Z,12.1
2019-01-15T02:50:14.860Z,10.9
2019-01-15T02:51:15.672Z,9.0
2019-01-15T02:52:16.391Z,8.3
2019-01-15T02:53:17.131Z,8.1
2019-01-15T02:54:17.847Z,15.0
2019-01-15T02:55:18.552Z,8.4
2019-01-15T02:56:19.319Z,11.4
2019-01-15T02:57:20.023Z,8.0
2019-01-15T02:58:20.732Z,7.1
2019-01-15T02:59:21.446Z,12.8
2019-01-15T03:00:22.154Z,12.1
2019-01-15T03:01:22.860Z,12.7
2019-01-15T03:02:23.569Z,8.6
2019-01-15T03:03:24.298Z,15.7
2019-01-15T03:04:25.001Z,9.0
2019-01-15T03:05:25.708Z,6.2
2019-01-15T03:06:26.426Z,16.3
2019-01-15T03:07:27.131Z,13.6
2019-01-15T03:08:27.833Z,9.5
2019-01-15T03:09:29.349Z,12.9
2019-01-15T03:10:30.122Z,12.8
2019-01-15T03:11:30.992Z,5.8
2019-01-15T03:12:31.788Z,7.1
2019-01-15T03:13:32.615Z,11.9
2019-01-15T03:14:33.351Z,15.2
2019-01-15T03:15:34.111Z,12.4
2019-01-15T03:16:34.880Z,11.0
2019-01-15T03:17:35.633Z,10.1
2019-01-15T03:18:36.556Z,15.9
2019-01-15T03:19:37.336Z,13.8
2019-01-15T03:20:38.121Z,15.2
2019-01-15T03:21:38.860Z,7.3
2019-01-15T03:22:39.576Z,11.0
2019-01-15T03:23:40.506Z,9.7
2019-01-15T03:24:41.264Z,9.6
2019-01-15T03:25:42.084Z,7.6
2019-01-15T03:26:42.931Z,14.3
2019-01-15T03:27:43.680Z,8.2
2019-01-15T03:28:44.426Z,11.0
2019-01-15T03:29:45.121Z,9.1
2019-01-15T03:30:45.918Z,11.1
2019-01-15T03:31:46.612Z,9.5
2019-01-15T03:32:47.324Z,6.4
2019-01-15T03:33:48.026Z,8.0
2019-01-15T03:34:48.737Z,13.3
2019-01-15T03:35:49.462Z,6.4
2019-01-15T03:36:50.168Z,8.2
2019-01-15T03:37:50.893Z,4.9
2019-01-15T03:38:51.601Z,8.3
2019-01-15T03:39:52.366Z,10.6
2019-01-15T03:40:53.030Z,12.2
2019-01-15T03:41:53.743Z,8.2
2019-01-15T03:43:02.726Z,7.8
2019-01-15T03:43:55.158Z,6.5
2019-01-15T03:44:55.863Z,7.3
2019-01-15T03:46:03.968Z,12.0
2019-01-15T03:46:57.334Z,5.2
2019-01-15T03:47:58.057Z,9.4
2019-01-15T03:48:58.756Z,8.3
2019-01-15T03:49:59.477Z,13.8
2019-01-15T03:51:00.183Z,12.4
2019-01-15T03:52:00.892Z,12.1
2019-01-15T03:53:01.615Z,13.4
2019-01-15T03:54:02.341Z,9.3
2019-01-15T03:55:03.091Z,13.6
2019-01-15T03:56:03.801Z,7.1
2019-01-15T03:57:04.519Z,10.4
2019-01-15T03:58:05.220Z,6.1
2019-01-15T03:59:05.936Z,13.1
2019-01-15T04:00:06.641Z,11.6
2019-01-15T04:01:07.341Z,11.0
2019-01-15T04:02:08.049Z,8.3
2019-01-15T04:03:08.750Z,9.6
2019-01-15T04:04:09.474Z,12.4
2019-01-15T04:05:10.326Z,6.8
2019-01-15T04:06:11.034Z,10.4
2019-01-15T04:07:11.742Z,11.3
2019-01-15T04:08:12.444Z,13.3
2019-01-15T04:09:13.147Z,9.7
2019-01-15T04:10:13.863Z,13.1
2019-01-15T04:11:14.572Z,6.6
2019-01-15T04:12:15.280Z,9.7
2019-01-15T04:13:15.985Z,6.7
2019-01-15T04:14:16.693Z,12.6
2019-01-15T04:15:17.400Z,12.1
2019-01-15T04:16:18.127Z,16.1
2019-01-15T04:17:18.827Z,5.2
2019-01-15T04:18:19.539Z,7.7
2019-01-15T04:19:20.248Z,6.8
2019-01-15T04:20:20.969Z,5.5
2019-01-15T04:21:21.824Z,8.6
2019-01-15T04:22:22.526Z,11.2
2019-01-15T04:23:23.241Z,8.9
2019-01-15T04:24:23.954Z,12.3
2019-01-15T04:25:24.655Z,7.1
2019-01-15T04:26:25.361Z,9.5
2019-01-15T04:27:26.071Z,6.9
2019-01-15T04:28:26.779Z,7.8
2019-01-15T04:29:27.481Z,7.5
2019-01-15T04:30:28.195Z,6.7
2019-01-15T04:31:28.958Z,10.7
2019-01-15T04:32:29.663Z,11.3
2019-01-15T04:33:30.628Z,4.6
2019-01-15T04:34:31.346Z,8.5
2019-01-15T04:35:32.039Z,4.6
2019-01-15T04:36:32.746Z,9.5
2019-01-15T04:37:33.452Z,14.2
2019-01-15T04:38:34.165Z,7.3
2019-01-15T04:39:34.865Z,13.4
2019-01-15T04:40:35.575Z,10.1
2019-01-15T04:41:36.331Z,11.9
2019-01-15T04:42:37.032Z,11.4
2019-01-15T04:43:37.742Z,10.4
2019-01-15T04:44:38.448Z,8.4
2019-01-15T04:45:39.409Z,12.6
2019-01-15T04:46:40.362Z,14.1
2019-01-15T04:47:41.074Z,15.4
2019-01-15T04:48:41.777Z,10.7
2019-01-15T04:49:42.551Z,10.8
2019-01-15T04:50:43.253Z,14.5
2019-01-15T04:51:43.969Z,15.7
2019-01-15T04:52:44.678Z,7.5
2019-01-15T04:53:45.384Z,14.1
2019-01-15T04:54:46.088Z,7.6
2019-01-15T04:55:46.789Z,9.0
2019-01-15T04:56:47.499Z,8.9
2019-01-15T04:57:48.213Z,16.6
2019-01-15T04:58:48.942Z,10.2
2019-01-15T04:59:49.640Z,9.9
2019-01-15T05:00:50.340Z,7.3
2019-01-15T05:01:51.062Z,10.5
2019-01-15T05:02:51.763Z,9.7
2019-01-15T05:03:52.464Z,9.7
2019-01-15T05:04:53.176Z,10.1
2019-01-15T05:05:53.885Z,10.6
2019-01-15T05:06:54.585Z,7.0
2019-01-15T05:07:55.296Z,11.9
2019-01-15T05:08:55.999Z,14.4
2019-01-15T05:09:56.712Z,9.2
2019-01-15T05:10:57.687Z,10.5
2019-01-15T05:11:58.370Z,11.8
2019-01-15T05:12:59.139Z,5.2
2019-01-15T05:14:00.097Z,12.7
2019-01-15T05:15:00.816Z,11.6
2019-01-15T05:16:01.509Z,7.9
2019-01-15T05:17:02.224Z,13.0
2019-01-15T05:18:02.932Z,7.2
2019-01-15T05:19:03.644Z,9.9
2019-01-15T05:20:04.347Z,16.9
2019-01-15T05:21:05.057Z,7.7
2019-01-15T05:22:05.811Z,14.3
2019-01-15T05:23:06.513Z,12.2
2019-01-15T05:24:07.472Z,12.9
2019-01-15T05:25:08.177Z,7.8
2019-01-15T05:26:09.145Z,12.9
2019-01-15T05:27:09.892Z,9.2
2019-01-15T05:28:10.558Z,8.4
2019-01-15T05:29:11.259Z,12.0
2019-01-15T05:30:11.971Z,15.3
2019-01-15T05:31:12.678Z,16.2
2019-01-15T05:32:13.635Z,10.0
2019-01-15T05:33:14.391Z,10.1
2019-01-15T05:34:15.106Z,16.3
2019-01-15T05:35:15.836Z,9.9
2019-01-15T05:36:16.545Z,10.8
2019-01-15T05:37:17.491Z,12.6
2019-01-15T05:38:18.195Z,6.2
2019-01-15T05:39:18.908Z,7.1
2019-01-15T05:40:19.623Z,13.1
2019-01-15T05:41:20.328Z,10.9
2019-01-15T05:42:21.030Z,6.0
2019-01-15T05:43:22.015Z,14.4
2019-01-15T05:44:22.712Z,10.3
2019-01-15T05:45:23.435Z,8.5
2019-01-15T05:46:24.150Z,14.7
2019-01-15T05:47:24.853Z,10.9
2019-01-15T05:48:25.563Z,13.3
2019-01-15T05:49:26.522Z,10.6
2019-01-15T05:50:27.331Z,8.6
2019-01-15T05:51:28.032Z,7.2
2019-01-15T05:52:28.737Z,9.9
2019-01-15T05:53:29.433Z,7.3
2019-01-15T05:54:30.147Z,8.8
2019-01-15T05:55:30.846Z,6.5
2019-01-15T05:56:31.578Z,6.3
2019-01-15T05:57:32.283Z,8.9
2019-01-15T05:58:32.982Z,8.9
2019-01-15T05:59:33.700Z,9.4
2019-01-15T06:00:34.400Z,7.8
2019-01-15T06:01:35.208Z,8.0
2019-01-15T06:02:35.915Z,10.0
2019-01-15T06:03:36.628Z,10.8
2019-01-15T06:04:37.335Z,9.8
2019-01-15T06:05:38.051Z,6.7
2019-01-15T06:06:38.885Z,6.5
2019-01-15T06:07:39.588Z,14.3
2019-01-15T06:08:40.286Z,10.2
2019-01-15T06:09:41.009Z,13.5
2019-01-15T06:10:41.710Z,11.0
2019-01-15T06:11:43.862Z,8.3
2019-01-15T06:12:44.892Z,9.0
2019-01-15T06:13:45.592Z,17.1
2019-01-15T06:14:46.309Z,7.6
2019-01-15T06:15:47.025Z,7.8
2019-01-15T06:16:47.730Z,15.6
2019-01-15T06:17:48.438Z,9.0
2019-01-15T06:18:49.141Z,7.4
2019-01-15T06:19:49.841Z,10.0
2019-01-15T06:20:50.568Z,11.6
2019-01-15T06:21:51.271Z,6.9
2019-01-15T06:22:52.231Z,8.6
2019-01-15T06:23:53.083Z,14.3
2019-01-15T06:24:53.792Z,9.7
2019-01-15T06:25:54.502Z,10.0
2019-01-15T06:26:55.199Z,8.9
2019-01-15T06:27:55.908Z,12.4
2019-01-15T06:28:56.615Z,12.3
2019-01-15T06:29:57.325Z,8.7
2019-01-15T06:30:58.054Z,10.6
2019-01-15T06:31:58.758Z,11.4
2019-01-15T06:32:59.460Z,7.9
2019-01-15T06:34:00.166Z,8.4
2019-01-15T06:35:00.880Z,8.9
2019-01-15T06:36:01.690Z,10.4
2019-01-15T06:37:02.667Z,14.0
2019-01-15T06:38:03.379Z,10.4
2019-01-15T06:39:04.337Z,10.7
2019-01-15T06:40:05.040Z,12.2
2019-01-15T06:41:05.748Z,11.5
2019-01-15T06:42:06.467Z,10.8
2019-01-15T06:43:07.160Z,16.9
2019-01-15T06:44:07.880Z,11.6
2019-01-15T06:45:08.597Z,15.8
2019-01-15T06:46:09.302Z,13.7
2019-01-15T06:47:10.012Z,16.1
2019-01-15T06:48:10.714Z,14.5
2019-01-15T06:49:11.423Z,13.6
2019-01-15T06:50:12.129Z,14.5
2019-01-15T06:51:13.093Z,15.8
2019-01-15T06:52:13.853Z,15.9
2019-01-15T06:53:14.562Z,16.9
2019-01-15T06:54:15.319Z,14.2
2019-01-15T06:55:16.032Z,14.7
2019-01-15T06:56:16.742Z,21.0
2019-01-15T06:57:17.690Z,16.3
2019-01-15T06:58:18.409Z,15.2
2019-01-15T06:59:19.290Z,15.7
2019-01-15T07:00:19.951Z,18.6
2019-01-15T07:01:20.657Z,16.2
2019-01-15T07:02:21.373Z,16.8
2019-01-15T07:03:22.577Z,18.2
2019-01-15T07:04:23.271Z,19.2
2019-01-15T07:05:24.222Z,25.2
2019-01-15T07:06:24.934Z,18.8
2019-01-15T07:07:25.912Z,20.7
2019-01-15T07:08:26.620Z,21.1
2019-01-15T07:09:27.423Z,23.8
2019-01-15T07:10:28.140Z,20.9
2019-01-15T07:11:28.854Z,23.3
2019-01-15T07:12:29.570Z,26.7
2019-01-15T07:13:30.286Z,22.6
2019-01-15T07:14:31.048Z,31.9
2019-01-15T07:15:31.748Z,30.0
2019-01-15T07:16:32.462Z,22.6
2019-01-15T07:17:33.181Z,23.1
2019-01-15T07:18:33.919Z,29.0
2019-01-15T07:19:34.644Z,24.7
2019-01-15T07:20:35.379Z,22.7
2019-01-15T07:21:36.077Z,24.3
2019-01-15T07:22:36.797Z,27.0
2019-01-15T07:23:37.499Z,25.8
2019-01-15T07:24:38.270Z,24.1
2019-01-15T07:25:39.217Z,25.5
2019-01-15T07:26:39.953Z,28.6
2019-01-15T07:27:40.676Z,27.6
2019-01-15T07:28:41.383Z,24.0
2019-01-15T07:29:42.409Z,25.0
2019-01-15T07:30:43.115Z,32.5
2019-01-15T07:31:43.834Z,26.9
2019-01-15T07:32:44.547Z,29.8
2019-01-15T07:33:45.258Z,28.9
2019-01-15T07:34:45.982Z,26.0
2019-01-15T07:35:46.686Z,30.5
2019-01-15T07:36:47.653Z,28.0
2019-01-15T07:37:48.365Z,27.5
2019-01-15T07:38:49.074Z,28.5
2019-01-15T07:39:49.792Z,30.2
2019-01-15T07:40:50.507Z,36.2
2019-01-15T07:41:51.211Z,34.3
2019-01-15T07:42:51.934Z,36.8
2019-01-15T07:43:52.653Z,31.6
2019-01-15T07:44:53.371Z,32.5
2019-01-15T07:45:54.083Z,30.3
2019-01-15T07:46:56.246Z,29.9
2019-01-15T07:47:55.556Z,31.1
2019-01-15T07:48:56.262Z,36.0
2019-01-15T07:49:57.121Z,28.9
2019-01-15T07:50:58.167Z,29.3
2019-01-15T07:51:58.872Z,32.0
2019-01-15T07:52:59.595Z,30.2
2019-01-15T07:54:00.316Z,36.0
2019-01-15T07:55:01.034Z,35.9
2019-01-15T07:56:01.739Z,29.6
2019-01-15T07:57:02.712Z,36.6
2019-01-15T07:58:03.439Z,37.9
2019-01-15T07:59:04.178Z,31.7
2019-01-15T08:00:04.978Z,35.3
2019-01-15T08:01:05.674Z,31.5
2019-01-15T08:02:06.395Z,37.3
2019-01-15T08:03:07.124Z,33.9
2019-01-15T08:04:08.000Z,35.6
2019-01-15T08:05:08.715Z,32.1
2019-01-15T08:06:09.438Z,39.9
2019-01-15T08:07:10.161Z,37.7
2019-01-15T08:08:10.863Z,31.6
2019-01-15T08:09:11.860Z,37.4
2019-01-15T08:10:12.347Z,41.2
2019-01-15T08:11:13.065Z,34.5
2019-01-15T08:12:13.778Z,35.6
2019-01-15T08:13:14.741Z,39.7
2019-01-15T08:14:15.448Z,39.7
2019-01-15T08:15:16.204Z,40.6
2019-01-15T08:16:16.919Z,42.1
2019-01-15T08:17:17.633Z,36.4
2019-01-15T08:18:18.597Z,40.6
2019-01-15T08:19:19.312Z,36.3
2019-01-15T08:20:20.169Z,38.9
2019-01-15T08:21:20.883Z,41.5
2019-01-15T08:22:21.597Z,35.8
2019-01-15T08:23:22.316Z,38.7
2019-01-15T08:24:23.025Z,34.4
2019-01-15T08:25:23.736Z,34.4
2019-01-15T08:26:24.461Z,33.3
2019-01-15T08:27:25.169Z,34.5
2019-01-15T08:28:26.126Z,37.2
2019-01-15T08:29:26.837Z,32.6
2019-01-15T08:30:27.553Z,37.4
2019-01-15T08:31:28.360Z,34.0
2019-01-15T08:32:29.075Z,36.7
2019-01-15T08:33:29.796Z,33.7
2019-01-15T08:34:30.513Z,41.5
2019-01-15T08:35:31.231Z,35.4
2019-01-15T08:36:31.998Z,33.8
2019-01-15T08:37:32.713Z,39.9
2019-01-15T08:38:33.431Z,35.4
2019-01-15T08:39:34.129Z,33.6
2019-01-15T08:40:34.842Z,32.7
2019-01-15T08:41:35.599Z,36.3
2019-01-15T08:42:36.327Z,39.3
2019-01-15T08:43:37.025Z,38.9
2019-01-15T08:44:37.745Z,41.4
2019-01-15T08:45:38.738Z,35.7
2019-01-15T08:46:39.482Z,37.1
2019-01-15T08:47:40.208Z,39.3
2019-01-15T08:48:40.924Z,36.2
2019-01-15T08:49:41.799Z,37.2
2019-01-15T08:50:42.520Z,40.0
2019-01-15T08:51:43.258Z,38.6
2019-01-15T08:52:43.985Z,39.6
2019-01-15T08:53:44.812Z,40.2
2019-01-15T08:54:45.779Z,40.1
2019-01-15T08:55:46.484Z,42.0
2019-01-15T08:56:47.454Z,39.0
2019-01-15T08:57:48.162Z,39.0
2019-01-15T08:58:49.121Z,43.8
2019-01-15T08:59:49.844Z,46.6
2019-01-15T09:00:50.549Z,45.0
2019-01-15T09:01:51.262Z,39.5
2019-01-15T09:02:51.980Z,41.9
2019-01-15T09:03:52.693Z,45.2
2019-01-15T09:04:53.417Z,47.5
2019-01-15T09:05:54.135Z,44.7
2019-01-15T09:06:55.098Z,44.8
2019-01-15T09:07:55.811Z,47.6
2019-01-15T09:08:56.523Z,37.6
2019-01-15T09:09:57.792Z,43.3
2019-01-15T09:10:58.781Z,46.5
2019-01-15T09:11:59.497Z,43.6
2019-01-15T09:13:00.211Z,41.5
2019-01-15T09:14:00.918Z,46.5
2019-01-15T09:15:01.910Z,42.7
2019-01-15T09:16:02.733Z,40.2
2019-01-15T09:17:10.781Z,42.3
2019-01-15T09:18:04.462Z,47.2
2019-01-15T09:19:05.170Z,47.5
2019-01-15T09:20:06.296Z,43.4
2019-01-15T09:21:07.000Z,56.3
2019-01-15T09:22:07.721Z,51.5
2019-01-15T09:23:08.445Z,46.9
2019-01-15T09:24:09.155Z,48.3
2019-01-15T09:25:09.932Z,52.5
2019-01-15T09:26:10.638Z,46.1
2019-01-15T09:27:11.354Z,49.5
2019-01-15T09:28:12.067Z,44.0
2019-01-15T09:29:12.774Z,44.1
2019-01-15T09:30:13.496Z,45.7
2019-01-15T09:31:14.237Z,48.0
2019-01-15T09:32:15.212Z,47.0
2019-01-15T09:33:15.922Z,49.4
2019-01-15T09:34:16.636Z,44.5
2019-01-15T09:35:17.359Z,41.2
2019-01-15T09:36:18.062Z,50.9
2019-01-15T09:37:18.784Z,48.9
2019-01-15T09:38:19.769Z,43.2
2019-01-15T09:39:20.474Z,40.2
2019-01-15T09:40:21.197Z,43.5
2019-01-15T09:41:21.919Z,41.9
2019-01-15T09:42:22.621Z,47.6
2019-01-15T09:43:23.337Z,43.2
2019-01-15T09:44:24.065Z,42.0
2019-01-15T09:45:24.779Z,40.9
2019-01-15T09:46:25.508Z,52.7
2019-01-15T09:47:26.237Z,45.7
2019-01-15T09:48:26.956Z,41.3
2019-01-15T09:49:27.673Z,46.3
2019-01-15T09:50:28.403Z,52.3
2019-01-15T09:51:29.121Z,45.6
2019-01-15T09:52:29.823Z,46.1
2019-01-15T09:53:30.529Z,44.9
2019-01-15T09:54:31.241Z,44.4
2019-01-15T09:55:31.965Z,41.9
2019-01-15T09:56:32.679Z,46.2
2019-01-15T09:57:33.398Z,42.3
2019-01-15T09:58:34.174Z,44.2
2019-01-15T09:59:34.887Z,49.5
2019-01-15T10:00:35.602Z,42.4
2019-01-15T10:01:36.322Z,39.2
2019-01-15T10:02:37.031Z,40.1
2019-01-15T10:03:37.746Z,37.6
2019-01-15T10:04:38.476Z,42.2
2019-01-15T10:05:39.190Z,39.1
2019-01-15T10:06:39.909Z,39.4
2019-01-15T10:07:40.628Z,32.8
2019-01-15T10:08:41.351Z,38.5
2019-01-15T10:09:42.122Z,35.6
2019-01-15T10:10:42.841Z,33.9
2019-01-15T10:11:43.573Z,42.0
2019-01-15T10:12:44.288Z,32.5
2019-01-15T10:13:45.004Z,42.6
2019-01-15T10:14:45.819Z,42.7
2019-01-15T10:15:46.521Z,36.2
2019-01-15T10:16:47.242Z,34.7
2019-01-15T10:17:47.953Z,38.6
2019-01-15T10:18:48.659Z,38.7
2019-01-15T10:19:49.386Z,40.4
2019-01-15T10:20:50.101Z,33.4
2019-01-15T10:21:50.820Z,32.8
2019-01-15T10:22:51.788Z,33.5
2019-01-15T10:23:52.491Z,30.1
2019-01-15T10:24:53.197Z,33.5
2019-01-15T10:25:53.923Z,38.6
2019-01-15T10:26:54.642Z,36.7
2019-01-15T10:27:55.365Z,31.6
2019-01-15T10:28:56.088Z,31.8
2019-01-15T10:29:59.205Z,29.6
2019-01-15T10:30:57.521Z,33.6
2019-01-15T10:31:58.348Z,37.2
2019-01-15T10:32:59.043Z,32.0
2019-01-15T10:33:59.745Z,39.1
2019-01-15T10:35:00.471Z,31.4
2019-01-15T10:36:01.198Z,33.1
2019-01-15T10:37:01.911Z,36.6
2019-01-15T10:38:02.664Z,31.8
2019-01-15T10:39:03.386Z,28.9
2019-01-15T10:40:04.100Z,34.8
2019-01-15T10:41:04.843Z,35.9
2019-01-15T10:42:05.546Z,28.9
2019-01-15T10:43:06.260Z,30.5
2019-01-15T10:44:06.989Z,32.5
2019-01-15T10:45:07.699Z,29.0
2019-01-15T10:46:08.684Z,32.2
2019-01-15T10:47:09.386Z,37.7
2019-01-15T10:48:10.094Z,35.2
2019-01-15T10:49:10.826Z,28.4
2019-01-15T10:50:11.532Z,36.3
2019-01-15T10:51:12.240Z,36.2
2019-01-15T10:52:12.967Z,37.1
2019-01-15T10:53:13.694Z,38.1
2019-01-15T10:54:14.768Z,37.7
2019-01-15T10:55:15.482Z,30.0
2019-01-15T10:56:16.194Z,31.8
2019-01-15T10:57:16.911Z,36.9
2019-01-15T10:58:17.908Z,33.4
2019-01-15T10:59:18.503Z,31.2
2019-01-15T11:00:19.213Z,35.4
2019-01-15T11:01:19.935Z,30.8
2019-01-15T11:02:20.645Z,34.6
2019-01-15T11:03:21.367Z,36.4
2019-01-15T11:04:22.181Z,34.8
2019-01-15T11:05:22.903Z,41.5
2019-01-15T11:06:23.610Z,42.9
2019-01-15T11:07:24.341Z,35.1
2019-01-15T11:08:25.311Z,35.9
2019-01-15T11:09:26.015Z,33.9
2019-01-15T11:10:26.724Z,39.8
2019-01-15T11:11:27.446Z,32.5
2019-01-15T11:12:28.154Z,32.3
2019-01-15T11:13:29.377Z,35.6
2019-01-15T11:14:30.082Z,31.5
2019-01-15T11:15:30.801Z,32.2
2019-01-15T11:16:31.614Z,35.2
2019-01-15T11:17:32.337Z,35.7
2019-01-15T11:18:33.053Z,31.6
2019-01-15T11:19:33.766Z,36.8
2019-01-15T11:20:34.475Z,35.1
2019-01-15T11:21:35.186Z,37.6
2019-01-15T11:22:35.917Z,35.3
2019-01-15T11:23:36.626Z,39.0
2019-01-15T11:24:37.347Z,36.7
2019-01-15T11:25:38.065Z,36.6
2019-01-15T11:26:38.784Z,36.8
2019-01-15T11:27:39.596Z,36.7
2019-01-15T11:28:40.307Z,39.3
2019-01-15T11:29:41.024Z,32.1
2019-01-15T11:30:41.761Z,34.9
2019-01-15T11:31:42.473Z,31.3
2019-01-15T11:32:43.237Z,32.1
2019-01-15T11:33:43.958Z,36.1
2019-01-15T11:34:44.668Z,36.0
2019-01-15T11:35:45.381Z,31.4
2019-01-15T11:36:46.106Z,34.4
2019-01-15T11:37:46.924Z,33.2
2019-01-15T11:38:47.631Z,38.3
2019-01-15T11:39:48.366Z,35.1
2019-01-15T11:40:49.084Z,36.3
2019-01-15T11:41:49.802Z,28.7
2019-01-15T11:42:50.521Z,34.3
2019-01-15T11:43:51.222Z,28.8
2019-01-15T11:44:52.167Z,34.2
2019-01-15T11:45:52.661Z,32.9
2019-01-15T11:46:53.390Z,36.7
2019-01-15T11:47:54.093Z,34.7
2019-01-15T11:48:54.964Z,30.3
2019-01-15T11:49:55.681Z,26.7
2019-01-15T11:50:56.426Z,29.3
2019-01-15T11:51:57.127Z,25.2
2019-01-15T11:52:57.843Z,29.8
2019-01-15T11:53:58.658Z,28.4
2019-01-15T11:54:59.408Z,34.4
2019-01-15T11:56:00.386Z,29.0
2019-01-15T11:57:01.100Z,28.4
2019-01-15T11:58:01.826Z,25.6
2019-01-15T11:59:02.533Z,28.9
2019-01-15T12:00:03.276Z,30.0
2019-01-15T12:01:04.247Z,28.5
2019-01-15T12:02:05.311Z,27.5
2019-01-15T12:03:06.060Z,31.8
2019-01-15T12:04:06.775Z,33.6
2019-01-15T12:05:08.455Z,29.4
2019-01-15T12:06:09.939Z,35.1
2019-01-15T12:07:10.648Z,31.6
2019-01-15T12:08:11.357Z,32.9
2019-01-15T12:09:12.432Z,30.4
2019-01-15T12:10:13.137Z,27.4
2019-01-15T12:11:13.857Z,28.7
2019-01-15T12:12:14.571Z,26.5
2019-01-15T12:13:15.342Z,27.1
2019-01-15T12:14:16.050Z,25.0
2019-01-15T12:15:17.412Z,29.5
2019-01-15T12:16:19.271Z,27.0
2019-01-15T12:17:20.009Z,28.8
2019-01-15T12:18:21.105Z,21.9
2019-01-15T12:19:21.815Z,21.7
2019-01-15T12:20:22.808Z,26.3
2019-01-15T12:21:23.892Z,26.4
2019-01-15T12:22:24.601Z,23.4
2019-01-15T12:23:25.319Z,20.7
2019-01-15T12:24:26.025Z,21.5
2019-01-15T12:25:26.738Z,24.0
2019-01-15T12:26:27.470Z,18.6
2019-01-15T12:27:28.189Z,25.7
2019-01-15T12:28:28.910Z,22.6
2019-01-15T12:29:29.624Z,23.6
2019-01-15T12:30:30.355Z,28.2
2019-01-15T12:31:31.127Z,24.2
2019-01-15T12:32:32.244Z,22.8
2019-01-15T12:33:33.008Z,21.9
2019-01-15T12:34:33.720Z,21.5
2019-01-15T12:35:34.539Z,28.9
2019-01-15T12:36:35.243Z,29.0
2019-01-15T12:37:36.008Z,19.8
2019-01-15T12:38:36.719Z,20.5
2019-01-15T12:39:37.445Z,18.7
2019-01-15T12:40:38.262Z,17.4
2019-01-15T12:41:38.980Z,26.1
2019-01-15T12:42:39.686Z,21.0
2019-01-15T12:43:40.427Z,21.6
2019-01-15T12:44:41.137Z,18.9
2019-01-15T12:45:41.860Z,18.2
2019-01-15T12:46:42.566Z,20.7
2019-01-15T12:47:43.290Z,27.6
2019-01-15T12:48:44.002Z,20.9
2019-01-15T12:49:44.717Z,17.7
2019-01-15T12:50:45.445Z,22.5
2019-01-15T12:51:46.199Z,17.9
2019-01-15T12:52:46.925Z,20.3
2019-01-15T12:53:47.645Z,21.0
2019-01-15T12:54:48.401Z,19.1
2019-01-15T12:55:49.119Z,18.0
2019-01-15T12:56:49.830Z,17.2
2019-01-15T12:59:06.036Z,16.2
2019-01-15T13:00:06.746Z,17.3
2019-01-15T13:01:07.470Z,16.8
2019-01-15T13:02:08.184Z,19.9
2019-01-15T13:03:08.933Z,18.1
2019-01-15T13:04:09.720Z,21.7
2019-01-15T13:05:10.877Z,18.7
2019-01-15T13:06:11.629Z,18.2
2019-01-15T13:07:12.607Z,20.9
2019-01-15T13:08:13.346Z,17.8
2019-01-15T13:09:14.395Z,26.7
2019-01-15T13:10:15.100Z,14.3
2019-01-15T13:11:15.810Z,18.1
2019-01-15T13:12:16.535Z,16.5
2019-01-15T13:13:17.726Z,19.0
2019-01-15T13:14:18.752Z,21.8
2019-01-15T13:15:26.161Z,18.3
2019-01-15T13:16:23.149Z,15.7
2019-01-15T13:17:25.115Z,20.8
2019-01-15T13:18:25.864Z,20.3
2019-01-15T13:19:26.589Z,15.4
2019-01-15T13:20:27.332Z,16.3
2019-01-15T13:21:28.035Z,20.8
2019-01-15T13:22:28.757Z,16.6
2019-01-15T13:23:29.767Z,19.3
2019-01-15T13:24:30.465Z,19.2
2019-01-15T13:25:31.186Z,16.7
2019-01-15T13:26:32.164Z,21.1
2019-01-15T13:27:32.873Z,18.3
2019-01-15T13:28:33.597Z,17.7
2019-01-15T13:29:34.326Z,17.7
2019-01-15T13:30:35.038Z,15.5
2019-01-15T13:31:35.800Z,17.2
2019-01-15T13:32:36.524Z,16.2
2019-01-15T13:33:37.232Z,17.8